sensor_id;sensor_type;location;lat;lon;timestamp;temperature;humidity
58638;DHT22;54976;51.510;7.522;2023-01-24T00:00:17;3.80;96.00
58638;DHT22;54976;51.510;7.522;2023-01-24T00:03:18;3.80;95.60
58638;DHT22;54976;51.510;7.522;2023-01-24T00:06:18;3.60;95.80
58638;DHT22;54976;51.510;7.522;2023-01-24T00:09:19;3.80;96.10
58638;DHT22;54976;51.510;7.522;2023-01-24T00:12:20;3.80;95.40
58638;DHT22;54976;51.510;7.522;2023-01-24T00:15:20;3.60;95.10
58638;DHT22;54976;51.510;7.522;2023-01-24T00:18:21;3.70;95.40
58638;DHT22;54976;51.510;7.522;2023-01-24T00:21:23;4.00;95.80
58638;DHT22;54976;51.510;7.522;2023-01-24T00:24:24;3.80;95.30
58638;DHT22;54976;51.510;7.522;2023-01-24T00:27:26;3.80;95.30
58638;DHT22;54976;51.510;7.522;2023-01-24T00:30:27;3.70;95.60
58638;DHT22;54976;51.510;7.522;2023-01-24T00:33:27;3.30;95.50
58638;DHT22;54976;51.510;7.522;2023-01-24T00:36:28;3.50;96.10
58638;DHT22;54976;51.510;7.522;2023-01-24T00:39:29;3.60;96.30
58638;DHT22;54976;51.510;7.522;2023-01-24T00:42:29;3.80;96.00
58638;DHT22;54976;51.510;7.522;2023-01-24T00:45:30;3.60;95.80
58638;DHT22;54976;51.510;7.522;2023-01-24T00:48:31;3.50;96.20
58638;DHT22;54976;51.510;7.522;2023-01-24T00:51:31;3.80;96.30
58638;DHT22;54976;51.510;7.522;2023-01-24T00:54:32;3.70;95.80
58638;DHT22;54976;51.510;7.522;2023-01-24T00:57:33;3.80;95.70
58638;DHT22;54976;51.510;7.522;2023-01-24T01:00:33;3.30;95.40
58638;DHT22;54976;51.510;7.522;2023-01-24T01:03:34;3.60;95.70
58638;DHT22;54976;51.510;7.522;2023-01-24T01:06:35;3.80;95.60
58638;DHT22;54976;51.510;7.522;2023-01-24T01:09:36;3.60;95.00
58638;DHT22;54976;51.510;7.522;2023-01-24T01:12:36;3.70;94.80
58638;DHT22;54976;51.510;7.522;2023-01-24T01:15:37;3.80;94.90
58638;DHT22;54976;51.510;7.522;2023-01-24T01:18:38;3.70;94.10
58638;DHT22;54976;51.510;7.522;2023-01-24T01:21:39;3.40;94.40
58638;DHT22;54976;51.510;7.522;2023-01-24T01:24:40;3.90;94.50
58638;DHT22;54976;51.510;7.522;2023-01-24T01:27:40;4.00;94.70
58638;DHT22;54976;51.510;7.522;2023-01-24T01:30:41;3.70;94.50
58638;DHT22;54976;51.510;7.522;2023-01-24T01:33:44;3.60;94.20
58638;DHT22;54976;51.510;7.522;2023-01-24T01:36:45;3.80;94.60
58638;DHT22;54976;51.510;7.522;2023-01-24T01:39:45;3.60;94.40
58638;DHT22;54976;51.510;7.522;2023-01-24T01:42:52;3.60;94.70
58638;DHT22;54976;51.510;7.522;2023-01-24T01:45:56;3.40;93.70
58638;DHT22;54976;51.510;7.522;2023-01-24T01:49:01;3.60;93.30
58638;DHT22;54976;51.510;7.522;2023-01-24T01:52:05;3.80;93.60
58638;DHT22;54976;51.510;7.522;2023-01-24T01:55:18;3.10;93.40
58638;DHT22;54976;51.510;7.522;2023-01-24T01:58:19;3.90;93.90
58638;DHT22;54976;51.510;7.522;2023-01-24T02:01:20;3.50;93.20
58638;DHT22;54976;51.510;7.522;2023-01-24T02:04:26;3.90;93.40
58638;DHT22;54976;51.510;7.522;2023-01-24T02:07:29;3.90;93.70
58638;DHT22;54976;51.510;7.522;2023-01-24T02:10:31;3.30;92.90
58638;DHT22;54976;51.510;7.522;2023-01-24T02:13:52;3.60;92.90
58638;DHT22;54976;51.510;7.522;2023-01-24T02:17:19;3.60;93.30
58638;DHT22;54976;51.510;7.522;2023-01-24T02:26:33;3.80;93.50
58638;DHT22;54976;51.510;7.522;2023-01-24T02:29:34;3.60;93.40
58638;DHT22;54976;51.510;7.522;2023-01-24T02:32:34;3.90;93.70
58638;DHT22;54976;51.510;7.522;2023-01-24T02:35:35;3.50;93.00
58638;DHT22;54976;51.510;7.522;2023-01-24T02:38:36;3.70;93.30
58638;DHT22;54976;51.510;7.522;2023-01-24T02:41:49;3.70;93.40
58638;DHT22;54976;51.510;7.522;2023-01-24T02:45:21;3.80;93.10
58638;DHT22;54976;51.510;7.522;2023-01-24T02:48:23;3.80;93.20
58638;DHT22;54976;51.510;7.522;2023-01-24T02:51:23;3.60;93.10
58638;DHT22;54976;51.510;7.522;2023-01-24T02:54:43;3.60;93.10
58638;DHT22;54976;51.510;7.522;2023-01-24T02:57:43;3.90;93.90
58638;DHT22;54976;51.510;7.522;2023-01-24T03:01:02;3.60;93.10
58638;DHT22;54976;51.510;7.522;2023-01-24T03:04:03;3.80;92.70
58638;DHT22;54976;51.510;7.522;2023-01-24T03:07:04;3.70;92.90
58638;DHT22;54976;51.510;7.522;2023-01-24T03:10:05;3.20;92.40
58638;DHT22;54976;51.510;7.522;2023-01-24T03:13:05;3.60;92.90
58638;DHT22;54976;51.510;7.522;2023-01-24T03:16:25;3.70;92.90
58638;DHT22;54976;51.510;7.522;2023-01-24T03:19:44;3.70;92.50
58638;DHT22;54976;51.510;7.522;2023-01-24T03:23:04;3.50;92.80
58638;DHT22;54976;51.510;7.522;2023-01-24T03:26:23;3.50;92.60
58638;DHT22;54976;51.510;7.522;2023-01-24T03:29:42;3.60;93.00
58638;DHT22;54976;51.510;7.522;2023-01-24T03:33:02;3.80;92.80
58638;DHT22;54976;51.510;7.522;2023-01-24T03:36:22;3.60;93.10
58638;DHT22;54976;51.510;7.522;2023-01-24T03:39:31;3.70;93.30
58638;DHT22;54976;51.510;7.522;2023-01-24T03:42:50;3.60;93.30
58638;DHT22;54976;51.510;7.522;2023-01-24T03:45:52;3.50;93.20
58638;DHT22;54976;51.510;7.522;2023-01-24T03:48:54;3.60;92.90
58638;DHT22;54976;51.510;7.522;2023-01-24T03:51:54;3.60;93.10
58638;DHT22;54976;51.510;7.522;2023-01-24T03:55:14;3.60;93.20
58638;DHT22;54976;51.510;7.522;2023-01-24T03:58:14;3.60;93.20
58638;DHT22;54976;51.510;7.522;2023-01-24T04:01:15;3.70;93.70
58638;DHT22;54976;51.510;7.522;2023-01-24T04:04:15;3.90;93.40
58638;DHT22;54976;51.510;7.522;2023-01-24T04:07:16;3.70;93.20
58638;DHT22;54976;51.510;7.522;2023-01-24T04:10:17;3.50;93.30
58638;DHT22;54976;51.510;7.522;2023-01-24T04:13:17;3.60;93.40
58638;DHT22;54976;51.510;7.522;2023-01-24T04:16:18;3.70;92.90
58638;DHT22;54976;51.510;7.522;2023-01-24T04:19:18;3.40;93.30
58638;DHT22;54976;51.510;7.522;2023-01-24T04:22:19;3.30;93.70
58638;DHT22;54976;51.510;7.522;2023-01-24T04:25:20;3.50;93.50
58638;DHT22;54976;51.510;7.522;2023-01-24T04:28:21;3.60;93.60
58638;DHT22;54976;51.510;7.522;2023-01-24T04:31:22;3.50;93.70
58638;DHT22;54976;51.510;7.522;2023-01-24T04:34:22;3.60;93.90
58638;DHT22;54976;51.510;7.522;2023-01-24T04:37:23;3.60;93.90
58638;DHT22;54976;51.510;7.522;2023-01-24T04:40:23;3.50;93.20
58638;DHT22;54976;51.510;7.522;2023-01-24T04:43:24;3.60;93.30
58638;DHT22;54976;51.510;7.522;2023-01-24T04:46:25;3.40;93.60
58638;DHT22;54976;51.510;7.522;2023-01-24T04:49:25;3.50;93.60
58638;DHT22;54976;51.510;7.522;2023-01-24T04:52:26;3.50;93.60
58638;DHT22;54976;51.510;7.522;2023-01-24T04:55:26;3.70;93.80
58638;DHT22;54976;51.510;7.522;2023-01-24T04:58:27;3.60;93.70
58638;DHT22;54976;51.510;7.522;2023-01-24T05:01:27;3.60;94.00
58638;DHT22;54976;51.510;7.522;2023-01-24T05:04:28;3.50;93.80
58638;DHT22;54976;51.510;7.522;2023-01-24T05:07:29;3.50;93.70
58638;DHT22;54976;51.510;7.522;2023-01-24T05:10:29;3.50;93.60
58638;DHT22;54976;51.510;7.522;2023-01-24T05:13:30;3.50;93.60
58638;DHT22;54976;51.510;7.522;2023-01-24T05:16:30;3.50;93.70
58638;DHT22;54976;51.510;7.522;2023-01-24T05:19:31;3.40;93.90
58638;DHT22;54976;51.510;7.522;2023-01-24T05:22:31;3.30;93.70
58638;DHT22;54976;51.510;7.522;2023-01-24T05:25:32;3.40;93.90
58638;DHT22;54976;51.510;7.522;2023-01-24T05:28:33;3.50;94.00
58638;DHT22;54976;51.510;7.522;2023-01-24T05:31:33;3.40;94.00
58638;DHT22;54976;51.510;7.522;2023-01-24T05:34:34;3.60;94.10
58638;DHT22;54976;51.510;7.522;2023-01-24T05:37:39;3.50;93.90
58638;DHT22;54976;51.510;7.522;2023-01-24T05:40:39;3.50;93.60
58638;DHT22;54976;51.510;7.522;2023-01-24T05:43:40;3.30;93.40
58638;DHT22;54976;51.510;7.522;2023-01-24T05:46:40;3.70;93.50
58638;DHT22;54976;51.510;7.522;2023-01-24T05:49:42;3.70;93.30
58638;DHT22;54976;51.510;7.522;2023-01-24T05:52:42;3.50;93.70
58638;DHT22;54976;51.510;7.522;2023-01-24T05:55:43;3.50;93.70
58638;DHT22;54976;51.510;7.522;2023-01-24T05:58:45;3.70;93.20
58638;DHT22;54976;51.510;7.522;2023-01-24T06:01:46;3.40;93.30
58638;DHT22;54976;51.510;7.522;2023-01-24T06:04:46;3.30;93.40
58638;DHT22;54976;51.510;7.522;2023-01-24T06:07:47;3.40;93.90
58638;DHT22;54976;51.510;7.522;2023-01-24T06:10:48;3.60;94.10
58638;DHT22;54976;51.510;7.522;2023-01-24T06:13:49;3.60;93.60
58638;DHT22;54976;51.510;7.522;2023-01-24T06:16:50;3.50;93.50
58638;DHT22;54976;51.510;7.522;2023-01-24T06:19:51;3.40;93.40
58638;DHT22;54976;51.510;7.522;2023-01-24T06:22:54;3.40;93.60
58638;DHT22;54976;51.510;7.522;2023-01-24T06:25:55;3.30;93.60
58638;DHT22;54976;51.510;7.522;2023-01-24T06:28:55;3.40;93.80
58638;DHT22;54976;51.510;7.522;2023-01-24T06:38:32;3.30;94.00
58638;DHT22;54976;51.510;7.522;2023-01-24T06:41:33;3.40;94.00
58638;DHT22;54976;51.510;7.522;2023-01-24T06:44:34;3.40;93.70
58638;DHT22;54976;51.510;7.522;2023-01-24T06:47:34;3.40;93.50
58638;DHT22;54976;51.510;7.522;2023-01-24T06:50:38;2.90;93.40
58638;DHT22;54976;51.510;7.522;2023-01-24T06:53:38;3.50;93.50
58638;DHT22;54976;51.510;7.522;2023-01-24T06:56:39;3.30;93.30
58638;DHT22;54976;51.510;7.522;2023-01-24T06:59:40;3.20;93.90
58638;DHT22;54976;51.510;7.522;2023-01-24T07:02:40;3.30;93.70
58638;DHT22;54976;51.510;7.522;2023-01-24T07:05:41;3.20;93.60
58638;DHT22;54976;51.510;7.522;2023-01-24T07:08:41;3.50;93.60
58638;DHT22;54976;51.510;7.522;2023-01-24T07:11:42;3.40;93.50
58638;DHT22;54976;51.510;7.522;2023-01-24T07:14:43;3.20;93.80
58638;DHT22;54976;51.510;7.522;2023-01-24T07:17:44;3.30;93.90
58638;DHT22;54976;51.510;7.522;2023-01-24T07:20:45;3.20;93.20
58638;DHT22;54976;51.510;7.522;2023-01-24T07:23:47;3.30;93.20
58638;DHT22;54976;51.510;7.522;2023-01-24T07:26:49;3.30;92.70
58638;DHT22;54976;51.510;7.522;2023-01-24T07:29:51;3.60;92.60
58638;DHT22;54976;51.510;7.522;2023-01-24T07:32:51;3.40;92.90
58638;DHT22;54976;51.510;7.522;2023-01-24T07:35:53;3.40;92.60
58638;DHT22;54976;51.510;7.522;2023-01-24T07:38:54;3.40;93.00
58638;DHT22;54976;51.510;7.522;2023-01-24T07:41:55;3.40;92.90
58638;DHT22;54976;51.510;7.522;2023-01-24T07:44:56;3.50;92.70
58638;DHT22;54976;51.510;7.522;2023-01-24T07:47:59;3.40;92.90
58638;DHT22;54976;51.510;7.522;2023-01-24T07:51:00;3.30;92.80
58638;DHT22;54976;51.510;7.522;2023-01-24T07:54:02;3.40;93.00
58638;DHT22;54976;51.510;7.522;2023-01-24T07:57:02;3.40;92.80
58638;DHT22;54976;51.510;7.522;2023-01-24T08:00:03;3.50;93.20
58638;DHT22;54976;51.510;7.522;2023-01-24T08:03:04;3.50;93.10
58638;DHT22;54976;51.510;7.522;2023-01-24T08:06:05;3.60;92.80
58638;DHT22;54976;51.510;7.522;2023-01-24T08:09:05;3.50;92.90
58638;DHT22;54976;51.510;7.522;2023-01-24T08:12:06;3.30;92.30
58638;DHT22;54976;51.510;7.522;2023-01-24T08:15:07;3.60;92.80
58638;DHT22;54976;51.510;7.522;2023-01-24T08:18:07;3.60;93.20
58638;DHT22;54976;51.510;7.522;2023-01-24T08:21:08;3.60;92.90
58638;DHT22;54976;51.510;7.522;2023-01-24T08:24:09;3.30;92.60
58638;DHT22;54976;51.510;7.522;2023-01-24T08:27:09;3.60;92.60
58638;DHT22;54976;51.510;7.522;2023-01-24T08:30:10;3.50;92.20
58638;DHT22;54976;51.510;7.522;2023-01-24T08:33:11;3.60;92.00
58638;DHT22;54976;51.510;7.522;2023-01-24T08:36:18;3.40;92.40
58638;DHT22;54976;51.510;7.522;2023-01-24T08:39:24;3.60;92.20
58638;DHT22;54976;51.510;7.522;2023-01-24T08:42:24;3.60;92.50
58638;DHT22;54976;51.510;7.522;2023-01-24T08:45:25;3.80;92.10
58638;DHT22;54976;51.510;7.522;2023-01-24T08:48:28;3.60;92.20
58638;DHT22;54976;51.510;7.522;2023-01-24T08:51:28;3.50;92.10
58638;DHT22;54976;51.510;7.522;2023-01-24T08:54:30;3.50;92.00
58638;DHT22;54976;51.510;7.522;2023-01-24T08:57:35;3.80;92.40
58638;DHT22;54976;51.510;7.522;2023-01-24T09:00:36;3.90;92.20
58638;DHT22;54976;51.510;7.522;2023-01-24T09:03:37;3.80;91.50
58638;DHT22;54976;51.510;7.522;2023-01-24T09:06:37;3.60;91.70
58638;DHT22;54976;51.510;7.522;2023-01-24T09:09:38;3.70;91.60
58638;DHT22;54976;51.510;7.522;2023-01-24T09:12:39;3.70;91.70
58638;DHT22;54976;51.510;7.522;2023-01-24T09:15:40;3.50;91.70
58638;DHT22;54976;51.510;7.522;2023-01-24T09:18:40;3.90;92.00
58638;DHT22;54976;51.510;7.522;2023-01-24T09:21:41;3.60;92.30
58638;DHT22;54976;51.510;7.522;2023-01-24T09:24:43;3.80;92.30
58638;DHT22;54976;51.510;7.522;2023-01-24T09:27:43;3.70;91.20
58638;DHT22;54976;51.510;7.522;2023-01-24T09:30:44;3.40;91.80
58638;DHT22;54976;51.510;7.522;2023-01-24T09:33:45;3.70;91.90
58638;DHT22;54976;51.510;7.522;2023-01-24T09:36:47;3.80;91.60
58638;DHT22;54976;51.510;7.522;2023-01-24T09:39:48;4.10;91.90
58638;DHT22;54976;51.510;7.522;2023-01-24T09:43:08;4.00;91.30
58638;DHT22;54976;51.510;7.522;2023-01-24T09:46:35;3.90;91.30
58638;DHT22;54976;51.510;7.522;2023-01-24T09:49:40;4.00;90.80
58638;DHT22;54976;51.510;7.522;2023-01-24T09:52:45;3.70;90.40
58638;DHT22;54976;51.510;7.522;2023-01-24T09:55:47;3.70;91.00
58638;DHT22;54976;51.510;7.522;2023-01-24T10:02:20;3.80;90.90
58638;DHT22;54976;51.510;7.522;2023-01-24T10:05:23;3.70;91.00
58638;DHT22;54976;51.510;7.522;2023-01-24T10:12:01;3.80;90.90
58638;DHT22;54976;51.510;7.522;2023-01-24T10:25:22;3.90;90.40
58638;DHT22;54976;51.510;7.522;2023-01-24T10:31:34;4.10;90.20
58638;DHT22;54976;51.510;7.522;2023-01-24T10:34:50;4.20;90.80
58638;DHT22;54976;51.510;7.522;2023-01-24T10:37:56;4.10;90.30
58638;DHT22;54976;51.510;7.522;2023-01-24T10:41:09;4.10;90.30
58638;DHT22;54976;51.510;7.522;2023-01-24T10:44:22;3.70;90.40
58638;DHT22;54976;51.510;7.522;2023-01-24T10:50:44;4.00;89.70
58638;DHT22;54976;51.510;7.522;2023-01-24T10:53:45;4.30;90.50
58638;DHT22;54976;51.510;7.522;2023-01-24T10:56:46;4.10;90.50
58638;DHT22;54976;51.510;7.522;2023-01-24T10:59:47;4.20;90.00
58638;DHT22;54976;51.510;7.522;2023-01-24T11:02:50;4.50;89.70
58638;DHT22;54976;51.510;7.522;2023-01-24T11:05:54;4.50;89.70
58638;DHT22;54976;51.510;7.522;2023-01-24T11:09:02;4.70;89.80
58638;DHT22;54976;51.510;7.522;2023-01-24T11:12:02;4.80;89.10
58638;DHT22;54976;51.510;7.522;2023-01-24T11:15:03;4.80;87.90
58638;DHT22;54976;51.510;7.522;2023-01-24T11:21:16;4.60;89.50
58638;DHT22;54976;51.510;7.522;2023-01-24T11:24:17;4.70;87.80
58638;DHT22;54976;51.510;7.522;2023-01-24T11:27:20;4.70;87.70
58638;DHT22;54976;51.510;7.522;2023-01-24T11:30:22;4.70;87.80
58638;DHT22;54976;51.510;7.522;2023-01-24T11:40:15;4.20;87.90
58638;DHT22;54976;51.510;7.522;2023-01-24T11:50:42;4.40;88.00
58638;DHT22;54976;51.510;7.522;2023-01-24T11:56:51;4.60;86.50
58638;DHT22;54976;51.510;7.522;2023-01-24T11:59:59;4.50;86.20
58638;DHT22;54976;51.510;7.522;2023-01-24T12:10:02;4.60;85.70
58638;DHT22;54976;51.510;7.522;2023-01-24T12:23:15;4.40;87.60
58638;DHT22;54976;51.510;7.522;2023-01-24T12:26:19;4.60;87.60
58638;DHT22;54976;51.510;7.522;2023-01-24T12:29:38;4.50;86.60
58638;DHT22;54976;51.510;7.522;2023-01-24T12:32:48;4.60;86.30
58638;DHT22;54976;51.510;7.522;2023-01-24T12:35:54;4.60;85.40
58638;DHT22;54976;51.510;7.522;2023-01-24T12:38:58;4.30;86.00
58638;DHT22;54976;51.510;7.522;2023-01-24T12:42:08;4.80;87.40
58638;DHT22;54976;51.510;7.522;2023-01-24T12:45:39;4.70;85.40
58638;DHT22;54976;51.510;7.522;2023-01-24T12:49:16;4.40;86.40
58638;DHT22;54976;51.510;7.522;2023-01-24T12:52:22;4.40;86.20
58638;DHT22;54976;51.510;7.522;2023-01-24T12:58:41;4.40;85.90
58638;DHT22;54976;51.510;7.522;2023-01-24T13:02:02;4.40;85.30
58638;DHT22;54976;51.510;7.522;2023-01-24T13:11:25;4.70;85.80
58638;DHT22;54976;51.510;7.522;2023-01-24T13:14:38;4.70;84.50
58638;DHT22;54976;51.510;7.522;2023-01-24T13:18:11;4.20;85.20
58638;DHT22;54976;51.510;7.522;2023-01-24T13:21:37;4.50;86.50
58638;DHT22;54976;51.510;7.522;2023-01-24T13:25:18;4.80;85.90
58638;DHT22;54976;51.510;7.522;2023-01-24T13:28:41;4.60;84.20
58638;DHT22;54976;51.510;7.522;2023-01-24T13:35:16;4.80;86.50
58638;DHT22;54976;51.510;7.522;2023-01-24T13:38:25;4.80;85.70
58638;DHT22;54976;51.510;7.522;2023-01-24T13:44:29;4.50;85.00
58638;DHT22;54976;51.510;7.522;2023-01-24T13:47:33;4.20;84.00
58638;DHT22;54976;51.510;7.522;2023-01-24T13:50:36;4.10;86.00
58638;DHT22;54976;51.510;7.522;2023-01-24T14:03:41;4.20;87.20
58638;DHT22;54976;51.510;7.522;2023-01-24T14:06:52;4.30;86.90
58638;DHT22;54976;51.510;7.522;2023-01-24T14:09:59;4.10;87.20
58638;DHT22;54976;51.510;7.522;2023-01-24T14:12:59;3.90;87.40
58638;DHT22;54976;51.510;7.522;2023-01-24T14:16:00;3.90;87.00
58638;DHT22;54976;51.510;7.522;2023-01-24T14:19:20;4.30;87.20
58638;DHT22;54976;51.510;7.522;2023-01-24T14:22:38;3.90;87.00
58638;DHT22;54976;51.510;7.522;2023-01-24T14:25:48;4.10;88.90
58638;DHT22;54976;51.510;7.522;2023-01-24T14:28:55;4.40;87.80
58638;DHT22;54976;51.510;7.522;2023-01-24T14:31:58;4.30;87.80
58638;DHT22;54976;51.510;7.522;2023-01-24T14:38:18;4.30;87.60
58638;DHT22;54976;51.510;7.522;2023-01-24T14:41:21;4.20;87.50
58638;DHT22;54976;51.510;7.522;2023-01-24T14:47:26;4.00;88.40
58638;DHT22;54976;51.510;7.522;2023-01-24T14:50:32;4.10;89.10
58638;DHT22;54976;51.510;7.522;2023-01-24T14:53:34;4.00;89.70
58638;DHT22;54976;51.510;7.522;2023-01-24T14:56:41;3.80;90.10
58638;DHT22;54976;51.510;7.522;2023-01-24T14:59:41;3.60;89.10
58638;DHT22;54976;51.510;7.522;2023-01-24T15:05:53;4.00;90.00
58638;DHT22;54976;51.510;7.522;2023-01-24T15:08:59;3.80;89.90
58638;DHT22;54976;51.510;7.522;2023-01-24T15:15:25;4.00;89.80
58638;DHT22;54976;51.510;7.522;2023-01-24T15:21:42;3.90;90.20
58638;DHT22;54976;51.510;7.522;2023-01-24T15:24:49;3.60;89.40
58638;DHT22;54976;51.510;7.522;2023-01-24T15:27:51;3.20;90.00
58638;DHT22;54976;51.510;7.522;2023-01-24T15:30:54;3.50;90.60
58638;DHT22;54976;51.510;7.522;2023-01-24T15:34:00;3.50;90.50
58638;DHT22;54976;51.510;7.522;2023-01-24T15:37:01;3.50;90.50
58638;DHT22;54976;51.510;7.522;2023-01-24T15:40:02;3.40;90.20
58638;DHT22;54976;51.510;7.522;2023-01-24T15:43:03;3.40;90.70
58638;DHT22;54976;51.510;7.522;2023-01-24T15:46:33;3.20;90.40
58638;DHT22;54976;51.510;7.522;2023-01-24T15:53:23;3.00;90.70
58638;DHT22;54976;51.510;7.522;2023-01-24T15:56:24;3.30;91.10
58638;DHT22;54976;51.510;7.522;2023-01-24T15:59:25;3.20;91.40
58638;DHT22;54976;51.510;7.522;2023-01-24T16:02:26;3.40;91.90
58638;DHT22;54976;51.510;7.522;2023-01-24T16:05:26;3.10;91.40
58638;DHT22;54976;51.510;7.522;2023-01-24T16:08:29;3.00;91.20
58638;DHT22;54976;51.510;7.522;2023-01-24T16:11:30;3.20;91.70
58638;DHT22;54976;51.510;7.522;2023-01-24T16:14:32;3.20;91.70
58638;DHT22;54976;51.510;7.522;2023-01-24T16:17:32;3.00;91.70
58638;DHT22;54976;51.510;7.522;2023-01-24T16:20:33;3.10;91.80
58638;DHT22;54976;51.510;7.522;2023-01-24T16:23:34;3.20;91.60
58638;DHT22;54976;51.510;7.522;2023-01-24T16:26:35;3.30;91.40
58638;DHT22;54976;51.510;7.522;2023-01-24T16:29:36;3.10;91.50
58638;DHT22;54976;51.510;7.522;2023-01-24T16:32:37;3.10;91.90
58638;DHT22;54976;51.510;7.522;2023-01-24T16:35:38;3.10;92.10
58638;DHT22;54976;51.510;7.522;2023-01-24T16:38:39;3.00;92.00
58638;DHT22;54976;51.510;7.522;2023-01-24T16:41:40;3.10;92.30
58638;DHT22;54976;51.510;7.522;2023-01-24T16:44:41;3.10;92.00
58638;DHT22;54976;51.510;7.522;2023-01-24T16:47:42;3.10;92.20
58638;DHT22;54976;51.510;7.522;2023-01-24T16:50:44;3.20;92.00
58638;DHT22;54976;51.510;7.522;2023-01-24T16:53:45;3.10;91.70
58638;DHT22;54976;51.510;7.522;2023-01-24T16:56:46;3.00;91.80
58638;DHT22;54976;51.510;7.522;2023-01-24T16:59:48;3.10;91.90
58638;DHT22;54976;51.510;7.522;2023-01-24T17:02:49;3.00;91.70
58638;DHT22;54976;51.510;7.522;2023-01-24T17:05:50;2.90;92.30
58638;DHT22;54976;51.510;7.522;2023-01-24T17:08:52;2.90;92.20
58638;DHT22;54976;51.510;7.522;2023-01-24T17:11:52;2.90;92.40
58638;DHT22;54976;51.510;7.522;2023-01-24T17:14:53;3.00;92.60
58638;DHT22;54976;51.510;7.522;2023-01-24T17:17:54;3.30;92.50
58638;DHT22;54976;51.510;7.522;2023-01-24T17:20:54;3.00;92.00
58638;DHT22;54976;51.510;7.522;2023-01-24T17:23:55;3.00;92.60
58638;DHT22;54976;51.510;7.522;2023-01-24T17:26:55;2.80;92.30
58638;DHT22;54976;51.510;7.522;2023-01-24T17:29:56;2.30;92.20
58638;DHT22;54976;51.510;7.522;2023-01-24T17:32:57;2.90;92.60
58638;DHT22;54976;51.510;7.522;2023-01-24T17:35:57;2.80;92.70
58638;DHT22;54976;51.510;7.522;2023-01-24T17:38:58;3.00;92.80
58638;DHT22;54976;51.510;7.522;2023-01-24T17:41:58;2.20;92.30
58638;DHT22;54976;51.510;7.522;2023-01-24T17:44:59;2.70;92.50
58638;DHT22;54976;51.510;7.522;2023-01-24T17:48:00;2.80;92.60
58638;DHT22;54976;51.510;7.522;2023-01-24T17:51:08;3.00;92.80
58638;DHT22;54976;51.510;7.522;2023-01-24T17:54:09;2.70;92.30
58638;DHT22;54976;51.510;7.522;2023-01-24T17:57:10;2.80;92.60
58638;DHT22;54976;51.510;7.522;2023-01-24T18:00:11;2.80;93.00
58638;DHT22;54976;51.510;7.522;2023-01-24T18:03:12;2.70;92.90
58638;DHT22;54976;51.510;7.522;2023-01-24T18:06:12;2.90;93.20
58638;DHT22;54976;51.510;7.522;2023-01-24T18:09:13;2.60;93.10
58638;DHT22;54976;51.510;7.522;2023-01-24T18:12:14;2.60;93.30
58638;DHT22;54976;51.510;7.522;2023-01-24T18:15:17;2.40;93.20
58638;DHT22;54976;51.510;7.522;2023-01-24T18:18:17;2.60;93.40
58638;DHT22;54976;51.510;7.522;2023-01-24T18:21:21;1.80;93.00
58638;DHT22;54976;51.510;7.522;2023-01-24T18:24:22;2.40;93.40
58638;DHT22;54976;51.510;7.522;2023-01-24T18:27:25;2.50;93.60
58638;DHT22;54976;51.510;7.522;2023-01-24T18:30:25;2.20;93.50
58638;DHT22;54976;51.510;7.522;2023-01-24T18:33:26;2.60;93.50
58638;DHT22;54976;51.510;7.522;2023-01-24T18:36:27;2.50;93.40
58638;DHT22;54976;51.510;7.522;2023-01-24T18:39:28;2.50;93.20
58638;DHT22;54976;51.510;7.522;2023-01-24T18:42:30;2.80;93.50
58638;DHT22;54976;51.510;7.522;2023-01-24T18:45:31;2.60;93.10
58638;DHT22;54976;51.510;7.522;2023-01-24T18:48:33;2.60;93.50
58638;DHT22;54976;51.510;7.522;2023-01-24T18:51:34;2.60;93.60
58638;DHT22;54976;51.510;7.522;2023-01-24T18:54:34;2.60;93.80
58638;DHT22;54976;51.510;7.522;2023-01-24T18:57:37;2.60;93.40
58638;DHT22;54976;51.510;7.522;2023-01-24T19:00:37;2.50;93.80
58638;DHT22;54976;51.510;7.522;2023-01-24T19:03:39;2.50;93.70
58638;DHT22;54976;51.510;7.522;2023-01-24T19:06:39;2.60;93.60
58638;DHT22;54976;51.510;7.522;2023-01-24T19:09:40;2.60;93.90
58638;DHT22;54976;51.510;7.522;2023-01-24T19:12:44;2.50;93.90
58638;DHT22;54976;51.510;7.522;2023-01-24T19:15:44;2.60;94.00
58638;DHT22;54976;51.510;7.522;2023-01-24T19:18:45;2.60;94.30
58638;DHT22;54976;51.510;7.522;2023-01-24T19:21:49;2.40;94.60
58638;DHT22;54976;51.510;7.522;2023-01-24T19:24:51;2.50;94.40
58638;DHT22;54976;51.510;7.522;2023-01-24T19:27:52;2.30;94.50
58638;DHT22;54976;51.510;7.522;2023-01-24T19:30:52;2.50;94.60
58638;DHT22;54976;51.510;7.522;2023-01-24T19:33:54;2.60;93.90
58638;DHT22;54976;51.510;7.522;2023-01-24T19:36:55;2.40;93.90
58638;DHT22;54976;51.510;7.522;2023-01-24T19:39:55;2.50;93.90
58638;DHT22;54976;51.510;7.522;2023-01-24T19:42:56;2.10;93.80
58638;DHT22;54976;51.510;7.522;2023-01-24T19:45:57;2.30;93.90
58638;DHT22;54976;51.510;7.522;2023-01-24T19:48:57;2.40;94.10
58638;DHT22;54976;51.510;7.522;2023-01-24T19:51:58;2.50;94.50
58638;DHT22;54976;51.510;7.522;2023-01-24T19:54:58;2.00;93.90
58638;DHT22;54976;51.510;7.522;2023-01-24T19:57:59;2.50;94.00
58638;DHT22;54976;51.510;7.522;2023-01-24T20:01:19;2.50;94.10
58638;DHT22;54976;51.510;7.522;2023-01-24T20:04:20;2.60;94.40
58638;DHT22;54976;51.510;7.522;2023-01-24T20:07:20;2.40;93.90
58638;DHT22;54976;51.510;7.522;2023-01-24T20:10:23;2.40;93.90
58638;DHT22;54976;51.510;7.522;2023-01-24T20:13:25;2.60;94.40
58638;DHT22;54976;51.510;7.522;2023-01-24T20:16:27;2.30;94.70
58638;DHT22;54976;51.510;7.522;2023-01-24T20:19:28;2.50;94.40
58638;DHT22;54976;51.510;7.522;2023-01-24T20:22:29;2.40;94.50
58638;DHT22;54976;51.510;7.522;2023-01-24T20:25:33;2.00;94.20
58638;DHT22;54976;51.510;7.522;2023-01-24T20:28:35;2.60;94.70
58638;DHT22;54976;51.510;7.522;2023-01-24T20:31:36;2.50;94.70
58638;DHT22;54976;51.510;7.522;2023-01-24T20:34:36;2.60;94.70
58638;DHT22;54976;51.510;7.522;2023-01-24T20:37:39;2.60;94.60
58638;DHT22;54976;51.510;7.522;2023-01-24T20:40:39;2.60;94.50
58638;DHT22;54976;51.510;7.522;2023-01-24T20:43:40;2.60;94.30
58638;DHT22;54976;51.510;7.522;2023-01-24T20:46:41;2.60;94.30
58638;DHT22;54976;51.510;7.522;2023-01-24T20:49:42;2.40;94.30
58638;DHT22;54976;51.510;7.522;2023-01-24T20:52:42;2.60;94.30
58638;DHT22;54976;51.510;7.522;2023-01-24T20:55:43;2.60;94.30
58638;DHT22;54976;51.510;7.522;2023-01-24T20:58:46;2.50;94.40
58638;DHT22;54976;51.510;7.522;2023-01-24T21:01:46;2.70;94.80
58638;DHT22;54976;51.510;7.522;2023-01-24T21:04:47;2.60;94.60
58638;DHT22;54976;51.510;7.522;2023-01-24T21:07:47;2.60;94.40
58638;DHT22;54976;51.510;7.522;2023-01-24T21:10:48;2.60;94.30
58638;DHT22;54976;51.510;7.522;2023-01-24T21:13:54;2.50;94.40
58638;DHT22;54976;51.510;7.522;2023-01-24T21:16:54;2.60;94.30
58638;DHT22;54976;51.510;7.522;2023-01-24T21:19:56;2.50;94.50
58638;DHT22;54976;51.510;7.522;2023-01-24T21:22:57;2.60;94.30
58638;DHT22;54976;51.510;7.522;2023-01-24T21:26:02;2.10;94.80
58638;DHT22;54976;51.510;7.522;2023-01-24T21:29:03;2.40;94.60
58638;DHT22;54976;51.510;7.522;2023-01-24T21:32:03;2.20;94.60
58638;DHT22;54976;51.510;7.522;2023-01-24T21:35:04;2.30;95.10